Parsival — V2MS — position and weather

sailwx.info

Track history (hours):
 
Tides and Currents Weather Stations Pressure Air Temp Water Temp Dewpoint Dewpoint Depression Visibility Wind Speed Wind Dir Waves Ship Positions

Parsival

Last reported at 2015-May-28 22:11 UTC. Time now 2015-May-29 22:23 UTC.
Position N 44°31' W 002°49'.

; draft 3.4 m.

Type: Cargo ship. MMSI: 304010881.

Date/timePositionNaut miles runAvg speedWind from/ knotsBaromVisibWave heightAir tempDewpointWater temp
2015-May-28 22:11N 44°31' W 002°49'73 9.1
2015-May-28 14:13N 43°27' W 002°00'9 0.5
2015-May-27 20:08N 43°19' W 001°54'3 0.2
2015-May-27 03:28N 43°21' W 001°57'  
2015-May-21 20:33N 49°01' W 005°30'247 8.7
2015-May-20 16:08N 50°34' E 000°24'7 9.8
2015-May-20 15:26N 50°37' E 000°34'8 9.4
2015-May-20 14:33N 50°42' E 000°44'12 8.4
2015-May-20 13:10N 50°49' E 000°59'16 8.2
2015-May-20 11:11N 50°59' E 001°19'6 9.8
2015-May-20 10:33N 51°03' E 001°26'1212.0
2015-May-20 09:33N 51°11' E 001°40'1110.6
2015-May-20 08:33N 51°22' E 001°44'1110.8
2015-May-20 07:33N 51°32' E 001°45'10 9.6
2015-May-20 06:33N 51°42' E 001°45'8 8.3
2015-May-20 05:33N 51°50' E 001°45'7 7.2
2015-May-20 04:33N 51°58' E 001°46'6 6.4
2015-May-20 03:33N 52°03' E 001°50'7 6.6
2015-May-20 02:33N 52°10' E 001°54'16 7.8
2015-May-20 00:33N 52°24' E 002°03'10 9.8
2015-May-19 23:32N 52°33' E 002°09'27 9.1
2015-May-19 20:33N 52°58' E 001°51'1110.7
2015-May-19 19:33N 53°05' E 001°38'7010.0
2015-May-19 12:32N 54°03' E 000°30'8 8.2
2015-May-19 11:32N 54°10' E 000°23'8 7.8
2015-May-19 10:32N 54°17' E 000°16'8 8.0
2015-May-19 09:33N 54°23' E 000°09'8 8.5
2015-May-19 08:33N 54°30' W 000°00'9 9.2
2015-May-19 07:33N 54°38' W 000°08'11 9.8
2015-May-19 06:24N 54°48' W 000°17'910.3
2015-May-19 05:33N 54°55' W 000°25'1110.3
2015-May-19 04:32N 55°04' W 000°35'  
Track history (hours):
 
Tides and Currents Weather Stations Pressure Air Temp Water Temp Dewpoint Dewpoint Depression Visibility Wind Speed Wind Dir Waves Ship Positions

Parsival

Last reported at 2015-May-28 22:11 UTC. Time now 2015-May-29 22:23 UTC.
Position N 44°31' W 002°49'.

; draft 3.4 m.

Type: Cargo ship. MMSI: 304010881.

Date/timePositionNaut miles runAvg speedWind from/ knotsBaromVisibWave heightAir tempDewpointWater temp
2015-May-28 22:11N 44°31' W 002°49'73 9.1
2015-May-28 14:13N 43°27' W 002°00'9 0.5
2015-May-27 20:08N 43°19' W 001°54'3 0.2
2015-May-27 03:28N 43°21' W 001°57'  
2015-May-21 20:33N 49°01' W 005°30'247 8.7
2015-May-20 16:08N 50°34' E 000°24'7 9.8
2015-May-20 15:26N 50°37' E 000°34'8 9.4
2015-May-20 14:33N 50°42' E 000°44'12 8.4
2015-May-20 13:10N 50°49' E 000°59'16 8.2
2015-May-20 11:11N 50°59' E 001°19'6 9.8
2015-May-20 10:33N 51°03' E 001°26'1212.0
2015-May-20 09:33N 51°11' E 001°40'1110.6
2015-May-20 08:33N 51°22' E 001°44'1110.8
2015-May-20 07:33N 51°32' E 001°45'10 9.6
2015-May-20 06:33N 51°42' E 001°45'8 8.3
2015-May-20 05:33N 51°50' E 001°45'7 7.2
2015-May-20 04:33N 51°58' E 001°46'6 6.4
2015-May-20 03:33N 52°03' E 001°50'7 6.6
2015-May-20 02:33N 52°10' E 001°54'16 7.8
2015-May-20 00:33N 52°24' E 002°03'10 9.8
2015-May-19 23:32N 52°33' E 002°09'27 9.1
2015-May-19 20:33N 52°58' E 001°51'1110.7
2015-May-19 19:33N 53°05' E 001°38'7010.0
2015-May-19 12:32N 54°03' E 000°30'8 8.2
2015-May-19 11:32N 54°10' E 000°23'8 7.8
2015-May-19 10:32N 54°17' E 000°16'8 8.0
2015-May-19 09:33N 54°23' E 000°09'8 8.5
2015-May-19 08:33N 54°30' W 000°00'9 9.2
2015-May-19 07:33N 54°38' W 000°08'11 9.8
2015-May-19 06:24N 54°48' W 000°17'910.3
2015-May-19 05:33N 54°55' W 000°25'1110.3
2015-May-19 04:32N 55°04' W 000°35'  

Dump ship's entire track history